Time;durP1;ratioP1;P1;durP2;ratioP2;P2;SDS_P1;SDS_P2;PMS_P1;PMS_P2;Temp;Humidity;BMP_temperature;BMP_pressure;BME280_temperature;BME280_humidity;BME280_pressure;Samples;Min_cycle;Max_cycle;Signal;HPM_P1;HPM_P2
2022/09/19 00:01:24;;;;;;;4.30;1.17;;;20.80;64.80;;;;;;5046703;28;20048;-58
2022/09/19 00:03:55;;;;;;;3.63;1.40;;;20.80;64.80;;;;;;5048137;28;20029;-58
2022/09/19 00:06:21;;;;;;;3.42;1.20;;;20.70;64.70;;;;;;5043724;28;20013;-58
2022/09/19 00:08:46;;;;;;;4.18;1.50;;;20.70;64.70;;;;;;5047391;28;20042;-58
2022/09/19 00:11:14;;;;;;;3.40;1.10;;;20.70;64.70;;;;;;5046076;28;20025;-58
2022/09/19 00:13:44;;;;;;;3.25;1.30;;;20.70;64.70;;;;;;5046348;28;20101;-58
2022/09/19 00:16:10;;;;;;;4.22;1.30;;;20.70;64.70;;;;;;5046256;28;20378;-58
2022/09/19 00:18:36;;;;;;;5.40;1.30;;;20.70;64.60;;;;;;5045405;28;20024;-58
2022/09/19 00:21:01;;;;;;;6.72;1.88;;;20.70;64.60;;;;;;5046071;28;20029;-58
2022/09/19 00:26:12;;;;;;;3.53;1.30;;;20.70;64.60;;;;;;5046235;28;20094;-58
2022/09/19 00:28:38;;;;;;;2.42;1.35;;;20.70;64.60;;;;;;5046835;28;20033;-58
2022/09/19 00:31:04;;;;;;;3.38;1.30;;;20.60;64.60;;;;;;5047007;28;20025;-58
2022/09/19 00:33:31;;;;;;;5.75;1.40;;;20.60;64.60;;;;;;5046887;28;20044;-58
2022/09/19 00:35:58;;;;;;;3.80;1.25;;;20.60;64.60;;;;;;5047022;28;20032;-58
2022/09/19 00:38:27;;;;;;;3.75;1.30;;;20.60;64.60;;;;;;5046869;28;20516;-58
2022/09/19 00:40:53;;;;;;;3.50;1.30;;;20.60;64.60;;;;;;5045889;28;20454;-59
2022/09/19 00:43:25;;;;;;;3.97;1.20;;;20.60;64.60;;;;;;5047195;28;20056;-58
2022/09/19 00:45:51;;;;;;;3.13;1.23;;;20.60;64.50;;;;;;5043353;28;20037;-59
2022/09/19 00:48:18;;;;;;;4.45;1.40;;;20.60;64.50;;;;;;5044050;28;20021;-58
2022/09/19 00:50:44;;;;;;;3.65;1.00;;;20.60;64.50;;;;;;5044433;28;20422;-58
2022/09/19 00:53:15;;;;;;;4.47;1.40;;;20.60;64.50;;;;;;5043868;28;20045;-58
2022/09/19 00:55:40;;;;;;;4.10;1.27;;;20.60;64.50;;;;;;5028867;28;20874;-59
2022/09/19 00:58:28;;;;;;;3.17;1.27;;;20.50;64.50;;;;;;5046604;28;20049;-58
2022/09/19 01:00:56;;;;;;;5.50;1.58;;;20.50;64.50;;;;;;5042882;28;20051;-58
2022/09/19 01:03:24;;;;;;;2.83;1.23;;;20.50;64.50;;;;;;5046536;28;20044;-58
2022/09/19 01:06:04;;;;;;;3.67;1.25;;;20.50;64.50;;;;;;5043088;28;20021;-58
2022/09/19 01:08:59;;;;;;;2.58;1.25;;;20.50;64.50;;;;;;5043546;28;20093;-58
2022/09/19 01:11:38;;;;;;;3.83;1.35;;;20.50;64.40;;;;;;5042114;28;20086;-58
2022/09/19 01:14:37;;;;;;;2.95;1.08;;;20.40;64.40;;;;;;5046905;28;20509;-58
2022/09/19 01:17:20;;;;;;;4.18;1.23;;;20.40;64.40;;;;;;5042261;28;20108;-58
2022/09/19 01:19:54;;;;;;;2.55;1.17;;;20.40;64.50;;;;;;5045737;28;20103;-58
2022/09/19 01:22:34;;;;;;;;;;;20.40;64.40;;;;;;5058734;28;20367;-58
2022/09/19 01:25:24;;;;;;;2.75;1.10;;;20.40;64.40;;;;;;5071823;28;20289;-58
2022/09/19 01:28:11;;;;;;;3.53;1.38;;;20.40;64.40;;;;;;5041364;28;20040;-58
2022/09/19 01:30:40;;;;;;;2.13;1.10;;;20.40;64.40;;;;;;5044017;28;20032;-58
2022/09/19 01:33:17;;;;;;;3.25;1.27;;;20.40;65.40;;;;;;5040315;28;20028;-58
2022/09/19 01:35:44;;;;;;;2.78;1.20;;;20.40;64.30;;;;;;5041677;28;20085;-58
2022/09/19 01:38:24;;;;;;;2.63;1.00;;;20.40;64.30;;;;;;5046184;28;20028;-58
2022/09/19 01:40:50;;;;;;;3.75;1.38;;;20.40;64.30;;;;;;5029623;28;20508;-58
2022/09/19 01:43:16;;;;;;;2.00;1.08;;;20.40;64.40;;;;;;5040807;28;20025;-58
2022/09/19 01:45:42;;;;;;;2.88;1.10;;;20.40;64.20;;;;;;5044154;28;20044;-58
2022/09/19 01:48:17;;;;;;;3.47;1.30;;;20.40;64.40;;;;;;5044097;28;20583;-58
2022/09/19 01:51:10;;;;;;;2.72;1.17;;;20.40;64.30;;;;;;5043366;28;20013;-57
2022/09/19 01:54:07;;;;;;;2.65;1.17;;;20.30;64.30;;;;;;5047772;28;20080;-58
2022/09/19 01:56:51;;;;;;;2.60;1.13;;;20.30;64.30;;;;;;5045338;28;20024;-58
2022/09/19 01:59:36;;;;;;;3.67;1.40;;;20.30;64.30;;;;;;5042728;28;20032;-58
2022/09/19 02:02:14;;;;;;;;;;;20.30;64.20;;;;;;5046524;28;20381;-58
2022/09/19 02:04:52;;;;;;;4.90;1.30;;;20.30;64.30;;;;;;5071601;28;19999;-58
2022/09/19 02:07:41;;;;;;;3.47;1.25;;;20.30;64.30;;;;;;5028821;28;20385;-58
2022/09/19 02:10:15;;;;;;;3.30;1.23;;;20.30;64.30;;;;;;5042597;28;20115;-58
2022/09/19 02:12:41;;;;;;;3.78;1.30;;;20.30;64.30;;;;;;5029100;28;20453;-58
2022/09/19 02:15:07;;;;;;;3.72;1.05;;;20.20;64.20;;;;;;5044639;28;20060;-58
2022/09/19 02:17:35;;;;;;;4.40;1.20;;;20.20;64.20;;;;;;5043846;28;20021;-57
2022/09/19 02:20:07;;;;;;;1.70;1.08;;;20.20;64.20;;;;;;5028792;28;20029;-58
2022/09/19 02:22:36;;;;;;;1.88;1.30;;;20.20;64.20;;;;;;5044183;28;20021;-58
2022/09/19 02:25:05;;;;;;;3.17;1.00;;;20.20;64.30;;;;;;5027959;28;20021;-58
2022/09/19 02:27:41;;;;;;;3.10;1.20;;;20.20;64.20;;;;;;5043808;28;20029;-58
2022/09/19 02:30:08;;;;;;;2.88;1.20;;;20.20;64.20;;;;;;5043195;28;20021;-58
2022/09/19 02:32:35;;;;;;;1.98;1.00;;;20.20;64.20;;;;;;5044535;28;20036;-58
2022/09/19 02:35:01;;;;;;;1.45;0.93;;;20.20;64.30;;;;;;5044551;28;20178;-58
2022/09/19 02:37:35;;;;;;;2.97;1.20;;;20.20;64.30;;;;;;5031802;28;20093;-58
2022/09/19 02:40:10;;;;;;;2.20;1.10;;;20.10;64.20;;;;;;5048410;28;20040;-58
2022/09/19 02:42:44;;;;;;;2.38;1.10;;;20.10;64.20;;;;;;5049706;28;20029;-58
2022/09/19 02:45:17;;;;;;;2.17;1.20;;;20.10;64.20;;;;;;5047058;28;20174;-59
2022/09/19 02:47:49;;;;;;;1.75;0.90;;;20.10;64.20;;;;;;5042398;28;20090;-58
2022/09/19 02:50:39;;;;;;;1.85;1.10;;;20.10;64.20;;;;;;5047253;28;20025;-58
2022/09/19 02:53:07;;;;;;;3.85;1.30;;;20.10;64.20;;;;;;5048479;28;20064;-58
2022/09/19 02:55:39;;;;;;;2.60;1.13;;;20.10;64.20;;;;;;5049273;28;20067;-58
2022/09/19 02:58:04;;;;;;;2.30;1.02;;;20.10;64.20;;;;;;5030837;28;20022;-58
2022/09/19 03:00:31;;;;;;;2.92;1.02;;;20.10;64.20;;;;;;5074242;28;20060;-58
2022/09/19 03:04:11;;;;;;;4.07;1.17;;;20.10;64.20;;;;;;5042731;28;20017;-57
2022/09/19 03:05:53;;;;;;;3.40;1.08;;;20.00;64.10;;;;;;5048005;28;20069;-58
2022/09/19 03:08:19;;;;;;;2.78;0.98;;;20.00;64.20;;;;;;5048034;28;20571;-58
2022/09/19 03:10:46;;;;;;;2.55;1.10;;;20.00;64.10;;;;;;5049327;28;20021;-58
2022/09/19 03:13:12;;;;;;;3.35;1.10;;;20.00;64.20;;;;;;5046736;28;20032;-58
2022/09/19 03:15:43;;;;;;;2.47;1.10;;;20.00;64.10;;;;;;5046496;28;20041;-58
2022/09/19 03:18:12;;;;;;;1.75;1.00;;;20.00;64.10;;;;;;5048913;28;20055;-58
2022/09/19 03:20:39;;;;;;;1.83;0.93;;;20.00;64.10;;;;;;5045867;28;20040;-58
2022/09/19 03:23:05;;;;;;;2.40;1.30;;;20.00;64.20;;;;;;5031543;28;20120;-58
2022/09/19 03:25:31;;;;;;;2.35;1.02;;;20.00;64.10;;;;;;5032143;28;20114;-58
2022/09/19 03:27:57;;;;;;;3.45;1.35;;;20.00;64.20;;;;;;5047541;28;20610;-58
2022/09/19 03:30:23;;;;;;;3.40;1.10;;;20.00;64.10;;;;;;5047053;28;22322;-58
2022/09/19 03:32:49;;;;;;;2.35;1.02;;;20.00;64.10;;;;;;5048383;28;20069;-58
2022/09/19 03:35:15;;;;;;;2.13;0.88;;;19.90;64.10;;;;;;5046325;28;20404;-58
2022/09/19 03:37:41;;;;;;;2.58;1.00;;;20.00;64.10;;;;;;5045840;28;20036;-58
2022/09/19 03:40:07;;;;;;;2.08;1.20;;;19.90;64.10;;;;;;5047319;28;20504;-58
2022/09/19 03:42:34;;;;;;;1.63;1.00;;;19.90;64.10;;;;;;5047787;28;20085;-57
2022/09/19 03:45:00;;;;;;;1.80;0.88;;;19.90;64.10;;;;;;5047901;28;20024;-58
2022/09/19 03:47:27;;;;;;;3.28;1.10;;;19.90;64.10;;;;;;5045058;28;20021;-58
2022/09/19 03:49:52;;;;;;;2.67;1.10;;;19.90;64.10;;;;;;5046951;28;20395;-57
2022/09/19 03:52:18;;;;;;;3.50;1.10;;;19.90;64.10;;;;;;5046673;28;20513;-58
2022/09/19 03:54:47;;;;;;;1.77;0.80;;;19.90;64.10;;;;;;5045630;28;20041;-58
2022/09/19 03:57:12;;;;;;;1.45;1.00;;;19.90;64.10;;;;;;5046914;28;20404;-58
2022/09/19 03:59:39;;;;;;;2.40;1.10;;;19.90;64.10;;;;;;5045643;28;20115;-58
2022/09/19 04:02:06;;;;;;;2.13;1.10;;;19.80;64.00;;;;;;5045577;28;20436;-58
2022/09/19 04:04:32;;;;;;;2.60;0.80;;;19.80;64.10;;;;;;5045715;28;20537;-58
2022/09/19 04:06:58;;;;;;;1.98;0.80;;;19.80;64.00;;;;;;5045458;28;20026;-57
2022/09/19 04:09:25;;;;;;;1.55;1.00;;;19.80;64.00;;;;;;5044500;28;20528;-57
2022/09/19 04:11:51;;;;;;;2.10;1.02;;;19.80;64.20;;;;;;5048559;28;20024;-57
2022/09/19 04:14:17;;;;;;;2.90;1.00;;;19.80;64.10;;;;;;5045455;28;20409;-58
2022/09/19 04:16:43;;;;;;;2.08;0.90;;;19.80;64.10;;;;;;5041922;28;20033;-58
2022/09/19 04:19:09;;;;;;;1.73;1.02;;;19.80;64.10;;;;;;5044241;28;20554;-57
2022/09/19 04:21:35;;;;;;;2.17;1.10;;;19.80;64.10;;;;;;5046396;28;20080;-58
2022/09/19 04:24:01;;;;;;;2.03;1.10;;;19.80;64.10;;;;;;5041365;28;20029;-58
2022/09/19 04:26:27;;;;;;;2.35;1.02;;;19.70;64.00;;;;;;5046355;28;20103;-58
2022/09/19 04:28:52;;;;;;;4.18;1.02;;;19.80;64.00;;;;;;5046365;28;20037;-58
2022/09/19 04:31:18;;;;;;;2.30;1.00;;;19.80;65.10;;;;;;5050712;28;20051;-58
2022/09/19 04:33:44;;;;;;;2.72;1.13;;;19.70;64.00;;;;;;5044987;28;20584;-58
2022/09/19 04:36:12;;;;;;;1.60;1.00;;;19.70;64.00;;;;;;5046699;28;20032;-58
2022/09/19 04:38:39;;;;;;;1.45;0.88;;;19.70;64.00;;;;;;5042733;28;20041;-58
2022/09/19 04:41:04;;;;;;;2.53;1.00;;;19.70;64.00;;;;;;5042433;28;20036;-58
2022/09/19 04:43:31;;;;;;;1.77;0.90;;;19.70;64.00;;;;;;5044510;28;20035;-58
2022/09/19 04:45:59;;;;;;;1.70;1.00;;;19.70;64.00;;;;;;5044632;28;20029;-58
2022/09/19 04:48:25;;;;;;;1.80;0.90;;;19.70;64.00;;;;;;5039804;28;20033;-57
2022/09/19 04:50:52;;;;;;;1.23;0.85;;;19.70;63.90;;;;;;5042928;28;20448;-58
2022/09/19 04:53:19;;;;;;;1.55;0.95;;;19.70;64.00;;;;;;5046594;28;20098;-58
2022/09/19 04:55:49;;;;;;;1.88;0.90;;;19.70;64.00;;;;;;5045181;28;20037;-58
2022/09/19 04:58:15;;;;;;;2.47;1.20;;;19.70;64.00;;;;;;5037077;28;20025;-58
2022/09/19 05:00:42;;;;;;;1.63;0.80;;;19.60;63.90;;;;;;5044148;28;20045;-58
2022/09/19 05:03:12;;;;;;;2.40;1.00;;;19.60;63.80;;;;;;5040324;28;20029;-57
2022/09/19 05:05:44;;;;;;;2.10;0.95;;;19.70;63.90;;;;;;5043113;28;20033;-57
2022/09/19 05:08:10;;;;;;;1.60;1.08;;;19.60;63.80;;;;;;5039150;28;20067;-57
2022/09/19 05:10:36;;;;;;;1.20;0.80;;;19.60;63.80;;;;;;5037470;28;20091;-58
2022/09/19 05:13:01;;;;;;;3.70;0.90;;;19.60;63.90;;;;;;5038414;28;20615;-57
2022/09/19 05:15:27;;;;;;;3.90;0.90;;;19.60;64.00;;;;;;5041705;28;22098;-58
2022/09/19 05:17:53;;;;;;;4.55;0.90;;;19.60;64.00;;;;;;5041999;28;20456;-57
2022/09/19 05:20:20;;;;;;;3.15;1.20;;;19.60;63.90;;;;;;5042202;28;20033;-57
2022/09/19 05:22:45;;;;;;;2.15;0.93;;;19.60;64.00;;;;;;5044004;28;20044;-57
2022/09/19 05:25:11;;;;;;;3.22;1.08;;;19.60;64.10;;;;;;5030339;28;20652;-58
2022/09/19 05:27:38;;;;;;;3.80;1.10;;;19.60;64.20;;;;;;5044492;28;20044;-57
2022/09/19 05:30:04;;;;;;;2.83;1.02;;;19.60;64.30;;;;;;5039680;28;20048;-58
2022/09/19 05:32:29;;;;;;;6.13;1.20;;;19.60;64.50;;;;;;5042461;28;20034;-58
2022/09/19 05:34:56;;;;;;;5.43;1.10;;;19.60;64.40;;;;;;5042008;28;20037;-57
2022/09/19 05:37:22;;;;;;;3.72;1.00;;;19.60;64.30;;;;;;5045869;28;20057;-58
2022/09/19 05:39:48;;;;;;;3.38;0.98;;;19.60;64.30;;;;;;5045290;28;20075;-57
2022/09/19 05:42:14;;;;;;;4.72;1.30;;;19.60;64.30;;;;;;5044803;28;20044;-58
2022/09/19 05:44:39;;;;;;;5.07;1.10;;;19.60;64.40;;;;;;5044782;28;20067;-58
2022/09/19 05:47:05;;;;;;;4.35;1.30;;;19.60;64.30;;;;;;5045171;28;20040;-58
2022/09/19 05:49:32;;;;;;;2.10;1.02;;;19.60;64.30;;;;;;5045466;28;20037;-58
2022/09/19 05:53:51;;;;;;;3.55;1.20;;;19.60;64.40;;;;;;5044104;28;20031;-58
2022/09/19 05:54:43;;;;;;;2.95;1.05;;;19.60;64.30;;;;;;5044564;28;20057;-58
2022/09/19 05:57:09;;;;;;;1.77;0.90;;;19.60;64.30;;;;;;5043109;28;20055;-58
2022/09/19 05:59:35;;;;;;;4.18;1.08;;;19.50;64.30;;;;;;5044816;28;20457;-58
2022/09/19 06:02:01;;;;;;;3.72;1.10;;;19.50;64.30;;;;;;5043189;28;20028;-58
2022/09/19 06:04:26;;;;;;;4.18;1.30;;;19.50;64.40;;;;;;5042450;28;20447;-58
2022/09/19 06:06:52;;;;;;;4.28;1.10;;;19.50;64.30;;;;;;5043634;28;20400;-57
2022/09/19 06:09:18;;;;;;;2.55;1.15;;;19.50;64.30;;;;;;5043137;28;21656;-58
2022/09/19 06:11:43;;;;;;;5.72;1.10;;;19.50;64.20;;;;;;5048230;28;20075;-57
2022/09/19 06:14:15;;;;;;;2.70;1.00;;;19.50;64.20;;;;;;5049698;28;20037;-58
2022/09/19 06:16:41;;;;;;;3.55;1.05;;;19.50;64.30;;;;;;5048572;28;20033;-58
2022/09/19 06:19:07;;;;;;;3.75;1.10;;;19.50;64.20;;;;;;5047477;28;20094;-58
2022/09/19 06:21:33;;;;;;;4.20;1.15;;;19.50;64.20;;;;;;5048646;28;20044;-58
2022/09/19 06:23:59;;;;;;;4.85;1.10;;;19.40;64.20;;;;;;5046430;28;20494;-58
2022/09/19 06:26:26;;;;;;;3.53;1.00;;;19.50;64.20;;;;;;5048469;28;20132;-58
2022/09/19 06:29:10;;;;;;;4.85;1.10;;;19.40;64.10;;;;;;5049612;28;20033;-58
2022/09/19 06:31:35;;;;;;;5.18;1.30;;;19.40;64.20;;;;;;5041869;28;20510;-58
2022/09/19 06:34:01;;;;;;;12.07;1.30;;;19.40;64.10;;;;;;5046999;28;20040;-58
2022/09/19 06:36:27;;;;;;;4.22;1.23;;;19.40;64.20;;;;;;5050069;28;20550;-58
2022/09/19 06:38:52;;;;;;;3.85;1.10;;;19.40;64.10;;;;;;5048423;28;20029;-58
2022/09/19 06:41:18;;;;;;;4.13;1.15;;;19.40;64.10;;;;;;5047440;28;20029;-58
2022/09/19 06:43:44;;;;;;;2.60;1.08;;;19.40;64.10;;;;;;5045521;28;20035;-58
2022/09/19 06:46:10;;;;;;;2.17;0.90;;;19.40;64.10;;;;;;5047609;28;20416;-58
2022/09/19 06:48:36;;;;;;;4.38;0.93;;;19.40;64.10;;;;;;5049044;28;20587;-58
2022/09/19 06:51:02;;;;;;;4.35;1.00;;;19.40;64.10;;;;;;5047819;28;20029;-58
2022/09/19 06:53:28;;;;;;;3.42;1.17;;;19.40;64.00;;;;;;5049620;28;20048;-58
2022/09/19 06:55:55;;;;;;;3.30;1.17;;;19.40;64.00;;;;;;5048118;28;20505;-57
2022/09/19 06:58:21;;;;;;;2.35;1.05;;;19.40;64.00;;;;;;5048488;28;20025;-58
2022/09/19 07:00:47;;;;;;;2.80;1.00;;;19.40;64.00;;;;;;5044185;28;20124;-58
2022/09/19 07:03:16;;;;;;;4.22;1.10;;;19.40;64.00;;;;;;5048367;28;20154;-58
2022/09/19 07:05:42;;;;;;;3.67;0.90;;;19.40;64.00;;;;;;5045701;28;20671;-58
2022/09/19 07:08:09;;;;;;;2.90;0.98;;;19.30;63.90;;;;;;5046955;28;20401;-57
2022/09/19 07:10:36;;;;;;;3.22;1.05;;;19.40;64.00;;;;;;5047571;28;20051;-58
2022/09/19 07:13:02;;;;;;;3.40;0.90;;;19.40;64.00;;;;;;5047216;28;20032;-58
2022/09/19 07:15:29;;;;;;;6.40;1.10;;;19.40;63.90;;;;;;5047430;28;20120;-57
2022/09/19 07:17:55;;;;;;;4.70;1.10;;;19.40;64.00;;;;;;5047826;28;20021;-58
2022/09/19 07:20:21;;;;;;;2.33;1.05;;;19.40;64.00;;;;;;5048396;28;20489;-58
2022/09/19 07:22:47;;;;;;;4.65;1.10;;;19.40;63.90;;;;;;5046085;28;20036;-58
2022/09/19 07:25:13;;;;;;;4.18;1.02;;;19.40;63.90;;;;;;5046690;28;20044;-58
2022/09/19 07:27:41;;;;;;;3.40;1.05;;;19.40;63.90;;;;;;5047215;28;20029;-58
2022/09/19 07:30:07;;;;;;;3.05;1.00;;;19.30;63.80;;;;;;5046719;28;20029;-58
2022/09/19 07:32:33;;;;;;;2.30;1.00;;;19.40;63.90;;;;;;5047065;28;20032;-58
2022/09/19 07:34:59;;;;;;;1.90;0.90;;;19.30;63.90;;;;;;5045888;28;20029;-58
2022/09/19 07:37:24;;;;;;;3.08;1.17;;;19.40;63.80;;;;;;5046667;28;20051;-58
2022/09/19 07:39:50;;;;;;;2.30;1.00;;;19.30;63.80;;;;;;5047970;28;20065;-58
2022/09/19 07:42:16;;;;;;;2.80;1.10;;;19.40;63.90;;;;;;5047886;28;20079;-58
2022/09/19 07:44:41;;;;;;;2.38;1.10;;;19.30;63.80;;;;;;5046142;28;20033;-58
2022/09/19 07:49:54;;;;;;;2.10;1.10;;;19.40;63.90;;;;;;5045144;28;20401;-57
2022/09/19 07:52:19;;;;;;;3.17;1.20;;;19.30;63.80;;;;;;5045868;28;20481;-57
2022/09/19 07:54:45;;;;;;;2.95;1.00;;;19.40;63.80;;;;;;5048746;28;20079;-58
2022/09/19 07:57:11;;;;;;;1.83;1.00;;;19.40;63.80;;;;;;5048745;28;20385;-58
2022/09/19 07:59:36;;;;;;;3.00;1.05;;;19.40;63.80;;;;;;5045075;28;20520;-57
2022/09/19 08:02:03;;;;;;;2.60;1.00;;;19.40;63.80;;;;;;5045852;28;20529;-57
2022/09/19 08:04:29;;;;;;;2.20;0.93;;;19.40;63.80;;;;;;5046669;28;20029;-58
2022/09/19 08:06:55;;;;;;;3.08;1.08;;;19.40;63.80;;;;;;5047531;28;20119;-57
2022/09/19 08:09:20;;;;;;;3.65;1.10;;;19.40;63.70;;;;;;5046772;28;20053;-58
2022/09/19 08:11:46;;;;;;;2.75;1.20;;;19.30;63.70;;;;;;5046404;28;20037;-58
2022/09/19 08:14:12;;;;;;;2.65;0.90;;;19.40;63.70;;;;;;5045679;28;20116;-58
2022/09/19 08:16:38;;;;;;;2.95;0.93;;;19.30;63.70;;;;;;5047226;28;20101;-58
2022/09/19 08:19:04;;;;;;;3.75;0.90;;;19.30;63.70;;;;;;5045860;28;20059;-58
2022/09/19 08:21:31;;;;;;;1.38;1.00;;;19.30;63.70;;;;;;5048066;28;20068;-58
2022/09/19 08:23:56;;;;;;;2.83;1.15;;;19.40;63.80;;;;;;5045004;28;20024;-58
2022/09/19 08:26:24;;;;;;;4.35;1.30;;;19.40;63.70;;;;;;5047183;28;20481;-58
2022/09/19 08:28:51;;;;;;;3.35;1.00;;;19.30;63.70;;;;;;5045433;28;20029;-58
2022/09/19 08:31:17;;;;;;;4.18;1.05;;;19.30;63.60;;;;;;5046766;28;20060;-58
2022/09/19 08:33:44;;;;;;;2.55;0.77;;;19.40;63.70;;;;;;5046193;28;20061;-58
2022/09/19 08:36:10;;;;;;;2.35;0.90;;;19.40;63.70;;;;;;5046292;28;20116;-57
2022/09/19 08:38:43;;;;;;;2.67;1.02;;;19.30;63.60;;;;;;5040427;28;20083;-58
2022/09/19 08:41:24;;;;;;;2.85;1.10;;;19.40;63.70;;;;;;5042333;28;20028;-57
2022/09/19 08:44:07;;;;;;;2.00;0.98;;;19.30;63.70;;;;;;5031088;28;20091;-57
2022/09/19 08:46:38;;;;;;;2.35;0.90;;;19.30;63.70;;;;;;5046405;28;20503;-57
2022/09/19 08:49:23;;;;;;;1.58;0.90;;;19.30;63.70;;;;;;5041936;28;20512;-57
2022/09/19 08:51:57;;;;;;;2.13;1.02;;;19.30;63.70;;;;;;5046107;28;20512;-58
2022/09/19 08:54:35;;;;;;;3.60;0.85;;;19.30;63.70;;;;;;5046866;28;20539;-58
2022/09/19 08:57:01;;;;;;;2.08;1.10;;;19.30;63.70;;;;;;5028065;28;20029;-58
2022/09/19 08:59:35;;;;;;;2.15;0.90;;;19.30;63.70;;;;;;5043909;28;20082;-57
2022/09/19 09:02:19;;;;;;;4.10;1.20;;;19.30;63.70;;;;;;5046366;28;20385;-57
2022/09/19 09:04:45;;;;;;;1.77;0.75;;;19.30;63.70;;;;;;5030545;28;20040;-58
2022/09/19 09:07:20;;;;;;;2.83;1.10;;;19.30;63.70;;;;;;5046762;28;20021;-58
2022/09/19 09:10:07;;;;;;;2.38;1.02;;;19.30;63.70;;;;;;5044818;28;20079;-58
2022/09/19 09:12:44;;;;;;;3.42;1.30;;;19.30;63.70;;;;;;5044366;28;20040;-57
2022/09/19 09:15:20;;;;;;;1.70;0.80;;;19.30;63.80;;;;;;5044006;28;20043;-57
2022/09/19 09:18:23;;;;;;;3.47;1.02;;;19.30;63.70;;;;;;5045633;28;20040;-58
2022/09/19 09:20:57;;;;;;;1.98;0.93;;;19.30;63.70;;;;;;5043411;28;20033;-57
2022/09/19 09:23:27;;;;;;;1.80;0.70;;;19.30;63.60;;;;;;5045400;28;20371;-57
2022/09/19 09:26:15;;;;;;;2.10;1.00;;;19.30;63.60;;;;;;5039644;28;20501;-57
2022/09/19 09:29:11;;;;;;;2.22;0.95;;;19.30;63.60;;;;;;5075020;28;20408;-58
2022/09/19 09:31:59;;;;;;;1.00;0.80;;;19.30;63.70;;;;;;5040826;28;20037;-57
2022/09/19 09:34:28;;;;;;;1.40;0.90;;;19.40;63.60;;;;;;5045222;28;20037;-57
2022/09/19 09:37:24;;;;;;;1.55;0.98;;;19.40;63.50;;;;;;5043741;28;20056;-58
2022/09/19 09:40:00;;;;;;;2.50;1.15;;;19.40;63.50;;;;;;5043572;28;20037;-58
2022/09/19 09:42:38;;;;;;;2.40;1.00;;;19.40;63.40;;;;;;5044926;28;20025;-58
2022/09/19 09:45:22;;;;;;;1.92;1.05;;;19.40;63.40;;;;;;5045487;28;20514;-57
2022/09/19 09:48:06;;;;;;;2.05;1.15;;;19.50;63.40;;;;;;5045838;28;20497;-57
2022/09/19 09:50:53;;;;;;;2.85;1.10;;;19.40;63.40;;;;;;5044682;28;20028;-57
2022/09/19 09:53:46;;;;;;;1.83;1.02;;;19.50;63.50;;;;;;5043779;28;20100;-58
2022/09/19 09:56:24;;;;;;;2.40;0.80;;;19.50;63.30;;;;;;5043820;28;20076;-57
2022/09/19 09:59:02;;;;;;;1.52;0.80;;;19.50;63.20;;;;;;5045567;28;20582;-57
2022/09/19 10:04:48;;;;;;;1.83;0.90;;;19.60;63.10;;;;;;5043242;28;20043;-57
2022/09/19 10:07:34;;;;;;;2.25;0.95;;;19.60;63.10;;;;;;5028004;28;20090;-58
2022/09/19 10:10:08;;;;;;;1.35;0.80;;;19.60;63.00;;;;;;5045481;28;20035;-58
2022/09/19 10:12:45;;;;;;;2.13;0.90;;;19.60;62.90;;;;;;5028052;28;20052;-57
2022/09/19 10:15:19;;;;;;;1.98;0.70;;;19.60;62.90;;;;;;5029712;28;20068;-58
2022/09/19 10:17:47;;;;;;;1.40;0.90;;;19.60;63.00;;;;;;5045608;28;20071;-57
2022/09/19 10:20:19;;;;;;;1.95;1.00;;;19.60;63.10;;;;;;5043822;28;20036;-58
2022/09/19 10:22:45;;;;;;;2.05;0.90;;;19.60;63.00;;;;;;5044867;28;20041;-58
2022/09/19 10:25:14;;;;;;;2.30;1.00;;;19.60;63.00;;;;;;5045544;28;20041;-57
2022/09/19 10:27:41;;;;;;;1.50;0.75;;;19.60;63.10;;;;;;5044961;28;20104;-57
2022/09/19 10:30:24;;;;;;;3.03;1.00;;;19.60;63.10;;;;;;5044618;28;20029;-57
2022/09/19 10:32:50;;;;;;;1.25;0.90;;;19.60;63.10;;;;;;5044754;28;20063;-57
2022/09/19 10:35:25;;;;;;;1.17;0.80;;;19.60;63.10;;;;;;5045165;28;20542;-58
2022/09/19 10:38:04;;;;;;;3.90;1.05;;;19.60;63.10;;;;;;5043918;28;20570;-58
2022/09/19 10:40:30;;;;;;;1.38;0.90;;;19.60;63.10;;;;;;5044550;28;20040;-58
2022/09/19 10:42:56;;;;;;;2.38;0.90;;;19.60;63.10;;;;;;5046013;28;20520;-57
2022/09/19 10:45:45;;;;;;;1.20;0.93;;;19.70;63.20;;;;;;5044194;28;20029;-57
2022/09/19 10:48:16;;;;;;;2.58;0.90;;;19.60;63.00;;;;;;5043431;28;20541;-58
2022/09/19 10:50:43;;;;;;;1.17;0.85;;;19.60;63.00;;;;;;5042014;28;20519;-57
2022/09/19 10:53:28;;;;;;;2.30;1.00;;;19.60;63.00;;;;;;5040986;28;20069;-58
2022/09/19 10:55:56;;;;;;;1.60;0.80;;;19.70;63.10;;;;;;5042915;28;20131;-58
2022/09/19 10:58:26;;;;;;;2.03;0.90;;;19.60;63.00;;;;;;5048139;28;20441;-57
2022/09/19 11:01:01;;;;;;;1.65;0.88;;;19.60;63.10;;;;;;5047628;28;20026;-57
2022/09/19 11:03:31;;;;;;;1.10;0.70;;;19.60;63.00;;;;;;5047737;28;20025;-57
2022/09/19 11:06:02;;;;;;;0.82;0.70;;;19.70;63.10;;;;;;5043178;28;20036;-58
2022/09/19 11:08:30;;;;;;;2.22;0.90;;;19.60;63.10;;;;;;5046474;28;20029;-57
2022/09/19 11:10:56;;;;;;;1.83;1.10;;;19.60;63.10;;;;;;5046134;28;20519;-57
2022/09/19 11:13:25;;;;;;;1.90;1.00;;;19.70;63.20;;;;;;5047769;28;20029;-57
2022/09/19 11:16:16;;;;;;;1.35;1.00;;;19.70;63.10;;;;;;5044689;28;20086;-57
2022/09/19 11:19:02;;;;;;;1.30;0.80;;;19.70;63.10;;;;;;5048518;28;20475;-57
2022/09/19 11:21:41;;;;;;;1.58;0.98;;;19.70;63.10;;;;;;5047090;28;20539;-57
2022/09/19 11:24:31;;;;;;;1.10;0.70;;;19.70;64.20;;;;;;5047738;28;20040;-55
2022/09/19 11:27:09;;;;;;;1.40;0.73;;;19.70;63.10;;;;;;5047737;28;20456;-57
2022/09/19 11:30:11;;;;;;;1.85;1.00;;;19.70;63.10;;;;;;5043500;28;20094;-57
2022/09/19 11:32:44;;;;;;;1.35;0.90;;;19.70;63.00;;;;;;5046452;28;20037;-58
2022/09/19 11:35:31;;;;;;;2.17;0.93;;;19.80;63.00;;;;;;5046786;28;20079;-57
2022/09/19 11:38:15;;;;;;;1.75;0.85;;;19.90;62.80;;;;;;5047437;28;20037;-57
2022/09/19 11:41:06;;;;;;;1.92;0.95;;;20.00;62.80;;;;;;5047093;28;20155;-58
2022/09/19 11:43:56;;;;;;;1.40;0.80;;;20.00;62.70;;;;;;5044859;28;20088;-57
2022/09/19 11:46:41;;;;;;;3.15;1.00;;;20.10;62.70;;;;;;5047022;28;20486;-57
2022/09/19 11:49:10;;;;;;;1.33;0.80;;;20.10;62.40;;;;;;5045664;28;20041;-58
2022/09/19 11:52:08;;;;;;;1.83;0.90;;;20.20;62.40;;;;;;5047354;28;20029;-58
2022/09/19 11:55:12;;;;;;;2.22;0.93;;;20.20;62.30;;;;;;5048296;28;20491;-57
2022/09/19 11:57:45;;;;;;;1.90;0.98;;;20.30;62.00;;;;;;5043904;28;20494;-57
2022/09/19 12:00:13;;;;;;;1.42;0.75;;;20.30;62.10;;;;;;5045799;28;20029;-57
2022/09/19 12:02:46;;;;;;;2.25;0.90;;;20.20;62.00;;;;;;5046478;28;20101;-57
2022/09/19 12:05:49;;;;;;;2.20;0.80;;;20.20;61.90;;;;;;5048114;28;20623;-58
2022/09/19 12:08:42;;;;;;;1.42;0.80;;;20.30;62.00;;;;;;5045853;28;20052;-57
2022/09/19 12:11:47;;;;;;;1.67;0.80;;;20.30;62.90;;;;;;5045981;28;20029;-58
2022/09/19 12:14:19;;;;;;;2.28;0.88;;;20.30;62.00;;;;;;5043933;28;20451;-57
2022/09/19 12:16:52;;;;;;;2.25;0.73;;;20.40;61.70;;;;;;5047559;28;20040;-58
2022/09/19 12:19:24;;;;;;;1.45;0.63;;;20.40;61.80;;;;;;5030776;28;20029;-58
2022/09/19 12:21:58;;;;;;;2.55;0.70;;;20.40;61.80;;;;;;5046281;28;20033;-57
2022/09/19 12:24:53;;;;;;;2.42;0.95;;;20.40;61.70;;;;;;5045946;28;20083;-57
2022/09/19 12:27:51;;;;;;;2.10;0.85;;;20.40;61.70;;;;;;5067811;28;20098;-57
2022/09/19 12:30:18;;;;;;;1.15;0.80;;;20.40;61.70;;;;;;5043932;28;20036;-57
2022/09/19 12:32:56;;;;;;;1.13;0.75;;;20.40;61.60;;;;;;5029680;28;20386;-58
2022/09/19 12:35:30;;;;;;;1.00;0.82;;;20.40;61.70;;;;;;5044696;28;20467;-57
2022/09/19 12:38:15;;;;;;;0.93;0.70;;;20.40;61.60;;;;;;5046231;28;20472;-57
2022/09/19 12:41:09;;;;;;;1.65;0.65;;;20.40;61.70;;;;;;5045610;28;20069;-57
2022/09/19 12:43:50;;;;;;;1.08;0.80;;;20.50;61.70;;;;;;5044488;28;20052;-57
2022/09/19 12:46:47;;;;;;;1.38;0.82;;;20.50;61.70;;;;;;5042400;28;20044;-58
2022/09/19 12:49:27;;;;;;;1.70;0.82;;;20.50;61.70;;;;;;5041726;28;20576;-57
2022/09/19 12:52:01;;;;;;;1.25;0.90;;;20.50;61.40;;;;;;5045858;28;20025;-58
2022/09/19 12:54:47;;;;;;;1.13;0.82;;;20.60;61.50;;;;;;5045980;28;20193;-58
2022/09/19 12:57:23;;;;;;;1.83;0.93;;;20.70;61.60;;;;;;5044017;28;20066;-58
2022/09/19 12:59:49;;;;;;;2.25;0.88;;;20.60;61.40;;;;;;5061648;28;20032;-58
2022/09/19 13:02:21;;;;;;;1.20;0.80;;;20.60;61.40;;;;;;5044268;28;20266;-58
2022/09/19 13:05:00;;;;;;;0.88;0.65;;;20.60;61.20;;;;;;5046580;28;20024;-58
2022/09/19 13:07:39;;;;;;;1.98;0.60;;;20.60;61.30;;;;;;5047307;28;20036;-57
2022/09/19 13:10:30;;;;;;;1.48;0.80;;;20.70;61.30;;;;;;5045257;28;20551;-58
2022/09/19 13:13:18;;;;;;;0.88;0.70;;;20.70;61.30;;;;;;5043617;28;20094;-58
2022/09/19 13:15:48;;;;;;;1.27;0.90;;;20.80;61.30;;;;;;5042683;28;20036;-58
2022/09/19 13:23:55;;;;;;;1.13;0.68;;;21.00;61.00;;;;;;5045740;28;20048;-58
2022/09/19 13:26:38;;;;;;;1.52;0.80;;;21.00;60.80;;;;;;5042171;28;20029;-58
2022/09/19 13:29:26;;;;;;;1.67;0.80;;;21.00;60.60;;;;;;5032285;28;20036;-58